createdAt,value
2018-07-02T00:00:08.296Z,1016.94
2018-07-02T00:01:07.968Z,1016.94
2018-07-02T00:02:07.966Z,1016.90
2018-07-02T00:03:08.288Z,1016.90
2018-07-02T00:04:07.893Z,1016.94
2018-07-02T00:05:08.737Z,1016.90
2018-07-02T00:06:07.834Z,1016.90
2018-07-02T00:07:08.740Z,1016.92
2018-07-02T00:08:07.818Z,1016.87
2018-07-02T00:09:07.758Z,1016.90
2018-07-02T00:10:08.234Z,1016.89
2018-07-02T00:11:07.737Z,1016.89
2018-07-02T00:12:07.660Z,1016.92
2018-07-02T00:13:07.632Z,1016.88
2018-07-02T00:14:08.247Z,1016.87
2018-07-02T00:15:07.572Z,1016.85
2018-07-02T00:16:07.598Z,1016.87
2018-07-02T00:17:08.237Z,1016.91
2018-07-02T00:18:07.490Z,1016.88
2018-07-02T00:19:07.461Z,1016.86
2018-07-02T00:20:08.236Z,1016.88
2018-07-02T00:21:07.446Z,1016.89
2018-07-02T00:22:07.373Z,1016.88
2018-07-02T00:23:08.241Z,1016.87
2018-07-02T00:24:07.313Z,1016.89
2018-07-02T00:25:07.326Z,1016.87
2018-07-02T00:26:07.306Z,1016.90
2018-07-02T00:27:07.300Z,1016.83
2018-07-02T00:28:07.204Z,1016.88
2018-07-02T00:29:07.178Z,1016.85
2018-07-02T00:30:07.146Z,1016.87
2018-07-02T00:31:07.114Z,1016.86
2018-07-02T00:32:07.150Z,1016.88
2018-07-02T00:33:07.056Z,1016.88
2018-07-02T00:34:07.037Z,1016.84
2018-07-02T00:35:07.011Z,1016.85
2018-07-02T00:36:07.740Z,1016.83
2018-07-02T00:37:06.988Z,1016.81
2018-07-02T00:38:06.913Z,1016.85
2018-07-02T00:39:06.888Z,1016.81
2018-07-02T00:40:06.860Z,1016.80
2018-07-02T00:41:07.736Z,1016.84
2018-07-02T00:42:06.853Z,1016.81
2018-07-02T00:43:06.777Z,1016.78
2018-07-02T00:44:07.242Z,1016.81
2018-07-02T00:45:06.715Z,1016.79
2018-07-02T00:46:06.682Z,1016.78
2018-07-02T00:47:06.807Z,1016.76
2018-07-02T00:48:06.632Z,1016.75
2018-07-02T00:49:06.601Z,1016.76
2018-07-02T00:50:06.575Z,1016.77
2018-07-02T00:51:06.536Z,1016.78
2018-07-02T00:52:06.562Z,1016.75
2018-07-02T00:53:07.246Z,1016.78
2018-07-02T00:54:06.452Z,1016.74
2018-07-02T00:55:06.431Z,1016.79
2018-07-02T00:56:07.241Z,1016.77
2018-07-02T00:57:06.411Z,1016.79
2018-07-02T00:58:06.340Z,1016.77
2018-07-02T00:59:07.242Z,1016.82
2018-07-02T01:00:06.315Z,1016.80
2018-07-02T01:01:06.252Z,1016.80
2018-07-02T01:02:06.744Z,1016.82
2018-07-02T01:03:06.237Z,1016.77
2018-07-02T01:04:06.173Z,1016.77
2018-07-02T01:05:06.460Z,1016.77
2018-07-02T01:06:06.105Z,1016.75
2018-07-02T01:07:06.080Z,1016.73
2018-07-02T01:08:06.058Z,1016.74
2018-07-02T01:09:06.742Z,1016.74
2018-07-02T01:10:06.036Z,1016.73
2018-07-02T01:11:05.964Z,1016.77
2018-07-02T01:12:06.768Z,1016.77
2018-07-02T01:13:05.903Z,1016.75
2018-07-02T01:14:05.951Z,1016.77
2018-07-02T01:15:05.845Z,1016.74
2018-07-02T01:16:05.815Z,1016.75
2018-07-02T01:17:06.750Z,1016.76
2018-07-02T01:18:05.757Z,1016.74
2018-07-02T01:19:05.832Z,1016.73
2018-07-02T01:20:05.724Z,1016.74
2018-07-02T01:21:05.667Z,1016.74
2018-07-02T01:22:05.645Z,1016.75
2018-07-02T01:23:05.611Z,1016.75
2018-07-02T01:24:05.626Z,1016.70
2018-07-02T01:25:05.593Z,1016.67
2018-07-02T01:26:05.697Z,1016.66
2018-07-02T01:27:05.494Z,1016.67
2018-07-02T01:28:05.492Z,1016.65
2018-07-02T01:29:05.444Z,1016.66
2018-07-02T01:30:05.450Z,1016.66
2018-07-02T01:31:05.384Z,1016.64
2018-07-02T01:32:05.357Z,1016.64
2018-07-02T01:33:06.243Z,1016.64
2018-07-02T01:34:05.294Z,1016.63
2018-07-02T01:35:05.349Z,1016.63
2018-07-02T01:36:05.236Z,1016.64
2018-07-02T01:37:05.205Z,1016.61
2018-07-02T01:38:05.176Z,1016.63
2018-07-02T01:39:05.153Z,1016.61
2018-07-02T01:40:05.161Z,1016.61
2018-07-02T01:41:05.169Z,1016.62
2018-07-02T01:42:05.067Z,1016.62
2018-07-02T01:43:05.030Z,1016.63
2018-07-02T01:44:05.005Z,1016.65
2018-07-02T01:45:05.750Z,1016.66
2018-07-02T01:46:04.996Z,1016.64
2018-07-02T01:47:04.914Z,1016.64
2018-07-02T01:48:04.897Z,1016.68
2018-07-02T01:49:05.746Z,1016.61
2018-07-02T01:50:04.829Z,1016.66
2018-07-02T01:51:04.841Z,1016.67
2018-07-02T01:52:05.755Z,1016.68
2018-07-02T01:53:04.737Z,1016.69
2018-07-02T01:54:04.707Z,1016.71
2018-07-02T01:55:05.257Z,1016.72
2018-07-02T01:56:04.700Z,1016.71
2018-07-02T01:57:04.627Z,1016.74
2018-07-02T01:58:04.801Z,1016.74
2018-07-02T01:59:04.570Z,1016.72
2018-07-02T02:00:04.530Z,1016.77
2018-07-02T02:01:04.505Z,1016.76
2018-07-02T02:02:05.253Z,1016.78
2018-07-02T02:03:04.495Z,1016.78
2018-07-02T02:04:05.268Z,1016.81
2018-07-02T02:05:04.388Z,1016.78
2018-07-02T02:06:04.412Z,1016.80
2018-07-02T02:07:05.251Z,1016.77
2018-07-02T02:08:04.301Z,1016.77
2018-07-02T02:09:04.316Z,1016.82
2018-07-02T02:10:04.240Z,1016.78
2018-07-02T02:11:04.304Z,1016.78
2018-07-02T02:12:04.184Z,1016.77
2018-07-02T02:13:04.151Z,1016.78
2018-07-02T02:14:04.124Z,1016.78
2018-07-02T02:15:04.139Z,1016.77
2018-07-02T02:16:04.074Z,1016.71
2018-07-02T02:17:04.748Z,1016.73
2018-07-02T02:18:04.015Z,1016.70
2018-07-02T02:19:03.972Z,1016.70
2018-07-02T02:20:04.312Z,1016.65
2018-07-02T02:21:03.914Z,1016.63
2018-07-02T02:22:03.886Z,1016.65
2018-07-02T02:23:04.747Z,1016.65
2018-07-02T02:24:03.827Z,1016.60
2018-07-02T02:25:03.850Z,1016.57
2018-07-02T02:26:04.747Z,1016.57
2018-07-02T02:27:03.740Z,1016.58
2018-07-02T02:28:03.707Z,1016.54
2018-07-02T02:29:04.250Z,1016.55
2018-07-02T02:30:03.796Z,1016.52
2018-07-02T02:31:03.631Z,1016.53
2018-07-02T02:32:03.599Z,1016.49
2018-07-02T02:33:03.561Z,1016.53
2018-07-02T02:34:04.249Z,1016.53
2018-07-02T02:35:03.556Z,1016.57
2018-07-02T02:36:03.470Z,1016.57
2018-07-02T02:37:03.446Z,1016.56
2018-07-02T02:38:03.455Z,1016.55
2018-07-02T02:39:04.251Z,1016.54
2018-07-02T02:40:03.360Z,1016.56
2018-07-02T02:41:03.337Z,1016.53
2018-07-02T02:42:04.334Z,1016.59
2018-07-02T02:43:03.314Z,1016.57
2018-07-02T02:44:05.757Z,1016.53
2018-07-02T02:45:03.210Z,1016.52
2018-07-02T02:46:03.170Z,1016.54
2018-07-02T02:47:03.150Z,1016.52
2018-07-02T02:48:03.308Z,1016.52
2018-07-02T02:49:03.082Z,1016.54
2018-07-02T02:50:03.319Z,1016.47
2018-07-02T02:51:03.036Z,1016.52
2018-07-02T02:52:03.004Z,1016.51
2018-07-02T02:53:02.965Z,1016.54
2018-07-02T02:54:03.752Z,1016.51
2018-07-02T02:55:02.960Z,1016.51
2018-07-02T02:56:02.875Z,1016.52
2018-07-02T02:57:02.846Z,1016.56
2018-07-02T02:58:02.861Z,1016.54
2018-07-02T02:59:02.829Z,1016.54
2018-07-02T03:00:02.755Z,1016.55
2018-07-02T03:01:02.738Z,1016.51
2018-07-02T03:02:02.706Z,1016.51
2018-07-02T03:03:02.668Z,1016.53
2018-07-02T03:04:02.699Z,1016.54
2018-07-02T03:05:03.253Z,1016.61
2018-07-02T03:06:02.583Z,1016.58
2018-07-02T03:07:02.549Z,1016.62
2018-07-02T03:08:02.524Z,1016.65
2018-07-02T03:09:02.813Z,1016.66
2018-07-02T03:10:02.465Z,1016.65
2018-07-02T03:11:02.430Z,1016.66
2018-07-02T03:12:03.259Z,1016.64
2018-07-02T03:13:02.430Z,1016.62
2018-07-02T03:14:02.342Z,1016.63
2018-07-02T03:15:02.314Z,1016.62
2018-07-02T03:16:02.304Z,1016.59
2018-07-02T03:17:02.256Z,1016.63
2018-07-02T03:18:02.273Z,1016.62
2018-07-02T03:19:02.191Z,1016.62
2018-07-02T03:20:02.779Z,1016.61
2018-07-02T03:21:02.137Z,1016.63
2018-07-02T03:22:02.304Z,1016.60
2018-07-02T03:23:02.080Z,1016.55
2018-07-02T03:24:02.108Z,1016.54
2018-07-02T03:25:02.014Z,1016.47
2018-07-02T03:26:02.758Z,1016.50
2018-07-02T03:27:02.010Z,1016.48
2018-07-02T03:28:01.928Z,1016.52
2018-07-02T03:29:02.763Z,1016.51
2018-07-02T03:30:01.912Z,1016.47
2018-07-02T03:31:01.843Z,1016.47
2018-07-02T03:32:02.368Z,1016.47
2018-07-02T03:33:01.792Z,1016.39
2018-07-02T03:34:01.752Z,1016.38
2018-07-02T03:35:01.722Z,1016.41
2018-07-02T03:36:02.265Z,1016.35
2018-07-02T03:37:01.714Z,1016.38
2018-07-02T03:38:02.256Z,1016.38
2018-07-02T03:39:01.602Z,1016.40
2018-07-02T03:40:01.618Z,1016.33
2018-07-02T03:41:02.259Z,1016.34
2018-07-02T03:42:01.514Z,1016.32
2018-07-02T03:43:01.537Z,1016.38
2018-07-02T03:44:02.267Z,1016.35
2018-07-02T03:45:01.425Z,1016.38
2018-07-02T03:46:01.399Z,1016.38
2018-07-02T03:47:01.372Z,1016.38
2018-07-02T03:48:01.817Z,1016.38
2018-07-02T03:49:01.309Z,1016.38
2018-07-02T03:50:01.293Z,1016.39
2018-07-02T03:51:01.302Z,1016.34
2018-07-02T03:52:01.260Z,1016.36
2018-07-02T03:53:01.196Z,1016.39
2018-07-02T03:54:01.317Z,1016.35
2018-07-02T03:55:01.131Z,1016.39
2018-07-02T03:56:01.138Z,1016.38
2018-07-02T03:57:01.758Z,1016.41
2018-07-02T03:58:01.112Z,1016.44
2018-07-02T03:59:01.015Z,1016.39
2018-07-02T04:00:00.998Z,1016.42
2018-07-02T04:01:00.960Z,1016.39
2018-07-02T04:02:00.927Z,1016.40
2018-07-02T04:03:00.959Z,1016.40
2018-07-02T04:04:01.761Z,1016.38
2018-07-02T04:05:00.843Z,1016.42
2018-07-02T04:06:00.814Z,1016.43
2018-07-02T04:07:00.788Z,1016.42
2018-07-02T04:08:00.811Z,1016.43
2018-07-02T04:09:00.725Z,1016.41
2018-07-02T04:10:00.715Z,1016.45
2018-07-02T04:11:00.714Z,1016.45
2018-07-02T04:12:00.640Z,1016.40
2018-07-02T04:13:00.676Z,1016.39
2018-07-02T04:14:01.262Z,1016.39
2018-07-02T04:15:00.552Z,1016.39
2018-07-02T04:16:00.519Z,1016.34
2018-07-02T04:17:00.821Z,1016.39
2018-07-02T04:18:00.479Z,1016.37
2018-07-02T04:19:00.439Z,1016.38
2018-07-02T04:20:00.819Z,1016.36
2018-07-02T04:21:00.379Z,1016.36
2018-07-02T04:22:00.344Z,1016.35
2018-07-02T04:23:00.841Z,1016.39
2018-07-02T04:24:00.817Z,1016.38
2018-07-02T04:25:00.257Z,1016.39
2018-07-02T04:26:00.290Z,1016.38
2018-07-02T04:27:00.767Z,1016.44
2018-07-02T04:28:00.182Z,1016.45
2018-07-02T04:29:00.187Z,1016.46
2018-07-02T04:30:00.764Z,1016.42
2018-07-02T04:31:00.092Z,1016.44
2018-07-02T04:32:00.312Z,1016.50
2018-07-02T04:33:00.032Z,1016.49
2018-07-02T04:34:00.008Z,1016.45
2018-07-02T04:35:00.317Z,1016.49
2018-07-02T04:35:59.956Z,1016.51
2018-07-02T04:36:59.914Z,1016.51
2018-07-02T04:37:59.931Z,1016.51
2018-07-02T04:38:59.866Z,1016.56
2018-07-02T04:40:00.322Z,1016.53
2018-07-02T04:40:59.804Z,1016.55
2018-07-02T04:42:00.770Z,1016.53
2018-07-02T04:42:59.751Z,1016.52
2018-07-02T04:43:59.729Z,1016.52
2018-07-02T04:44:59.827Z,1016.50
2018-07-02T04:45:59.666Z,1016.51
2018-07-02T04:46:59.643Z,1016.49
2018-07-02T04:48:00.123Z,1016.50
2018-07-02T04:49:00.270Z,1016.47
2018-07-02T04:49:59.594Z,1016.49
2018-07-02T04:50:59.576Z,1016.53
2018-07-02T04:51:59.492Z,1016.55
2018-07-02T04:52:59.469Z,1016.51
2018-07-02T04:54:00.285Z,1016.50
2018-07-02T04:54:59.463Z,1016.50
2018-07-02T04:56:00.326Z,1016.50
2018-07-02T04:56:59.356Z,1016.50
2018-07-02T04:57:59.323Z,1016.49
2018-07-02T04:59:00.284Z,1016.53
2018-07-02T04:59:59.279Z,1016.53
2018-07-02T05:00:59.301Z,1016.58
2018-07-02T05:01:59.213Z,1016.58
2018-07-02T05:02:59.773Z,1016.62
2018-07-02T05:03:59.158Z,1016.59
2018-07-02T05:04:59.133Z,1016.64
2018-07-02T05:05:59.136Z,1016.63
2018-07-02T05:07:00.178Z,1016.64
2018-07-02T05:07:59.045Z,1016.63
2018-07-02T05:08:59.015Z,1016.65
2018-07-02T05:09:59.042Z,1016.64
2018-07-02T05:10:58.960Z,1016.64
2018-07-02T05:11:58.933Z,1016.65
2018-07-02T05:12:58.905Z,1016.68
2018-07-02T05:13:59.776Z,1016.70
2018-07-02T05:14:58.894Z,1016.73
2018-07-02T05:15:58.829Z,1016.68
2018-07-02T05:16:58.833Z,1016.73
2018-07-02T05:17:58.772Z,1016.69
2018-07-02T05:18:58.789Z,1016.66
2018-07-02T05:19:59.274Z,1016.69
2018-07-02T05:20:58.694Z,1016.72
2018-07-02T05:21:59.274Z,1016.71
2018-07-02T05:22:58.684Z,1016.71
2018-07-02T05:23:59.282Z,1016.68
2018-07-02T05:24:58.596Z,1016.72
2018-07-02T05:25:58.835Z,1016.70
2018-07-02T05:26:58.541Z,1016.73
2018-07-02T05:27:58.838Z,1016.71
2018-07-02T05:28:58.488Z,1016.65
2018-07-02T05:29:58.469Z,1016.70
2018-07-02T05:30:58.440Z,1016.66
2018-07-02T05:31:58.454Z,1016.67
2018-07-02T05:32:59.288Z,1016.66
2018-07-02T05:33:58.364Z,1016.67
2018-07-02T05:34:58.332Z,1016.65
2018-07-02T05:35:59.278Z,1016.62
2018-07-02T05:36:58.316Z,1016.60
2018-07-02T05:37:58.779Z,1016.68
2018-07-02T05:38:58.265Z,1016.65
2018-07-02T05:39:58.776Z,1016.61
2018-07-02T05:40:58.188Z,1016.59
2018-07-02T05:41:58.331Z,1016.67
2018-07-02T05:42:58.184Z,1016.64
2018-07-02T05:43:58.797Z,1016.65
2018-07-02T05:44:58.959Z,1016.58
2018-07-02T05:45:58.048Z,1016.61
2018-07-02T05:46:58.067Z,1016.63
2018-07-02T05:47:58.778Z,1016.63
2018-07-02T05:48:57.965Z,1016.61
2018-07-02T05:49:58.785Z,1016.61
2018-07-02T05:50:57.925Z,1016.65
2018-07-02T05:51:57.941Z,1016.68
2018-07-02T05:52:57.902Z,1016.63
2018-07-02T05:53:58.779Z,1016.66
2018-07-02T05:54:57.845Z,1016.61
2018-07-02T05:55:58.281Z,1016.61
2018-07-02T05:56:57.803Z,1016.65
2018-07-02T05:57:58.287Z,1016.58
2018-07-02T05:58:57.738Z,1016.60
2018-07-02T05:59:58.282Z,1016.60
2018-07-02T06:00:57.653Z,1016.58
2018-07-02T06:01:58.281Z,1016.59
2018-07-02T06:02:57.597Z,1016.57
2018-07-02T06:03:57.853Z,1016.63
2018-07-02T06:04:57.563Z,1016.63
2018-07-02T06:05:58.283Z,1016.61
2018-07-02T06:06:57.492Z,1016.64
2018-07-02T06:07:58.391Z,1016.61
2018-07-02T06:08:57.489Z,1016.56
2018-07-02T06:09:57.408Z,1016.58
2018-07-02T06:10:58.279Z,1016.57
2018-07-02T06:11:57.359Z,1016.54
2018-07-02T06:12:57.327Z,1016.57
2018-07-02T06:13:57.835Z,1016.58
2018-07-02T06:14:57.370Z,1016.60
2018-07-02T06:15:57.248Z,1016.60
2018-07-02T06:16:57.246Z,1016.62
2018-07-02T06:17:57.195Z,1016.61
2018-07-02T06:18:57.838Z,1016.62
2018-07-02T06:19:57.206Z,1016.63
2018-07-02T06:20:57.790Z,1016.63
2018-07-02T06:21:57.090Z,1016.59
2018-07-02T06:22:57.784Z,1016.60
2018-07-02T06:23:57.039Z,1016.59
2018-07-02T06:24:58.192Z,1016.63
2018-07-02T06:25:56.988Z,1016.65
2018-07-02T06:26:56.958Z,1016.59
2018-07-02T06:27:57.785Z,1016.64
2018-07-02T06:28:56.907Z,1016.58
2018-07-02T06:29:57.340Z,1016.61
2018-07-02T06:30:56.855Z,1016.61
2018-07-02T06:31:57.795Z,1016.65
2018-07-02T06:32:56.816Z,1016.60
2018-07-02T06:33:57.286Z,1016.64
2018-07-02T06:34:56.796Z,1016.59
2018-07-02T06:35:57.308Z,1016.64
2018-07-02T06:36:56.700Z,1016.65
2018-07-02T06:37:57.286Z,1016.66
2018-07-02T06:38:56.648Z,1016.67
2018-07-02T06:39:56.843Z,1016.66
2018-07-02T06:40:56.591Z,1016.66
2018-07-02T06:41:57.309Z,1016.65
2018-07-02T06:42:56.545Z,1016.68
2018-07-02T06:43:56.523Z,1016.71
2018-07-02T06:44:56.876Z,1016.66
2018-07-02T06:45:56.463Z,1016.66
2018-07-02T06:46:56.479Z,1016.67
2018-07-02T06:47:57.293Z,1016.67
2018-07-02T06:48:56.387Z,1016.60
2018-07-02T06:49:57.291Z,1016.67
2018-07-02T06:50:56.339Z,1016.65
2018-07-02T06:51:56.846Z,1016.66
2018-07-02T06:52:56.348Z,1016.65
2018-07-02T06:53:56.791Z,1016.66
2018-07-02T06:54:56.240Z,1016.67
2018-07-02T06:55:56.790Z,1016.71
2018-07-02T06:56:56.181Z,1016.69
2018-07-02T06:57:56.345Z,1016.66
2018-07-02T06:58:56.129Z,1016.71
2018-07-02T06:59:56.345Z,1016.67
2018-07-02T07:00:56.085Z,1016.70
2018-07-02T07:01:56.078Z,1016.73
2018-07-02T07:02:56.792Z,1016.68
2018-07-02T07:03:56.041Z,1016.69
2018-07-02T07:04:56.815Z,1016.69
2018-07-02T07:05:55.949Z,1016.70
2018-07-02T07:06:55.973Z,1016.70
2018-07-02T07:07:56.796Z,1016.75
2018-07-02T07:08:55.873Z,1016.68
2018-07-02T07:09:56.348Z,1016.74
2018-07-02T07:10:55.824Z,1016.75
2018-07-02T07:11:56.304Z,1016.74
2018-07-02T07:12:55.773Z,1016.78
2018-07-02T07:13:56.296Z,1016.78
2018-07-02T07:14:55.757Z,1016.78
2018-07-02T07:15:56.297Z,1016.76
2018-07-02T07:16:55.716Z,1016.76
2018-07-02T07:17:56.294Z,1016.77
2018-07-02T07:18:55.619Z,1016.73
2018-07-02T07:19:56.298Z,1016.72
2018-07-02T07:20:55.614Z,1016.74
2018-07-02T07:21:56.297Z,1016.72
2018-07-02T07:22:55.561Z,1016.74
2018-07-02T07:23:56.303Z,1016.72
2018-07-02T07:24:55.471Z,1016.73
2018-07-02T07:25:56.296Z,1016.73
2018-07-02T07:26:55.418Z,1016.71
2018-07-02T07:27:55.851Z,1016.73
2018-07-02T07:28:55.382Z,1016.75
2018-07-02T07:29:56.323Z,1016.76
2018-07-02T07:30:55.316Z,1016.76
2018-07-02T07:31:55.338Z,1016.74
2018-07-02T07:32:55.802Z,1016.74
2018-07-02T07:33:55.291Z,1016.74
2018-07-02T07:34:55.801Z,1016.69
2018-07-02T07:35:55.191Z,1016.69
2018-07-02T07:36:55.167Z,1016.69
2018-07-02T07:37:55.803Z,1016.68
2018-07-02T07:38:55.172Z,1016.65
2018-07-02T07:39:55.801Z,1016.63
2018-07-02T07:40:55.071Z,1016.61
2018-07-02T07:41:55.039Z,1016.64
2018-07-02T07:42:55.801Z,1016.64
2018-07-02T07:43:55.029Z,1016.68
2018-07-02T07:44:55.826Z,1016.62
2018-07-02T07:45:54.997Z,1016.60
2018-07-02T07:46:55.800Z,1016.62
2018-07-02T07:47:54.892Z,1016.55
2018-07-02T07:48:55.805Z,1016.48
2018-07-02T07:49:54.840Z,1016.50
2018-07-02T07:50:55.371Z,1016.53
2018-07-02T07:51:54.792Z,1016.48
2018-07-02T07:52:54.768Z,1016.52
2018-07-02T07:53:55.315Z,1016.51
2018-07-02T07:54:54.720Z,1016.48
2018-07-02T07:55:54.876Z,1016.49
2018-07-02T07:56:54.671Z,1016.45
2018-07-02T07:57:55.305Z,1016.46
2018-07-02T07:58:54.617Z,1016.53
2018-07-02T07:59:54.596Z,1016.48
2018-07-02T08:00:54.875Z,1016.44
2018-07-02T08:01:54.546Z,1016.42
2018-07-02T08:02:54.522Z,1016.43
2018-07-02T08:03:55.307Z,1016.45
2018-07-02T08:04:54.469Z,1016.41
2018-07-02T08:05:54.897Z,1016.41
2018-07-02T08:06:54.465Z,1016.42
2018-07-02T08:07:54.395Z,1016.34
2018-07-02T08:08:55.307Z,1016.38
2018-07-02T08:09:54.346Z,1016.35
2018-07-02T08:10:54.331Z,1016.37
2018-07-02T08:11:54.352Z,1016.36
2018-07-02T08:12:54.284Z,1016.36
2018-07-02T08:13:54.811Z,1016.36
2018-07-02T08:14:54.229Z,1016.32
2018-07-02T08:15:54.811Z,1016.33
2018-07-02T08:16:54.230Z,1016.31
2018-07-02T08:17:54.155Z,1016.29
2018-07-02T08:18:54.132Z,1016.27
2018-07-02T08:19:54.104Z,1016.32
2018-07-02T08:20:54.812Z,1016.30
2018-07-02T08:21:54.821Z,1016.28
2018-07-02T08:22:54.030Z,1016.35
2018-07-02T08:23:54.005Z,1016.30
2018-07-02T08:24:53.979Z,1016.30
2018-07-02T08:25:54.813Z,1016.33
2018-07-02T08:26:53.978Z,1016.30
2018-07-02T08:27:53.954Z,1016.32
2018-07-02T08:28:53.890Z,1016.32
2018-07-02T08:29:53.864Z,1016.32
2018-07-02T08:30:53.887Z,1016.37
2018-07-02T08:31:53.812Z,1016.36
2018-07-02T08:32:53.888Z,1016.42
2018-07-02T08:33:53.769Z,1016.34
2018-07-02T08:34:54.316Z,1016.34
2018-07-02T08:35:53.719Z,1016.31
2018-07-02T08:36:53.692Z,1016.32
2018-07-02T08:37:53.853Z,1016.33
2018-07-02T08:38:53.652Z,1016.31
2018-07-02T08:39:53.621Z,1016.30
2018-07-02T08:40:54.314Z,1016.28
2018-07-02T08:41:53.574Z,1016.30
2018-07-02T08:42:53.595Z,1016.19
2018-07-02T08:43:54.326Z,1016.21
2018-07-02T08:44:53.496Z,1016.22
2018-07-02T08:45:53.473Z,1016.18
2018-07-02T08:46:54.408Z,1016.19
2018-07-02T08:47:53.470Z,1016.19
2018-07-02T08:48:53.401Z,1016.12
2018-07-02T08:49:53.382Z,1016.11
2018-07-02T08:50:53.397Z,1016.11
2018-07-02T08:51:53.332Z,1016.14
2018-07-02T08:52:53.361Z,1016.12
2018-07-02T08:53:53.282Z,1016.15
2018-07-02T08:54:53.260Z,1016.09
2018-07-02T08:55:53.818Z,1016.04
2018-07-02T08:56:53.212Z,1016.06
2018-07-02T08:57:53.237Z,1016.05
2018-07-02T08:58:53.207Z,1016.04
2018-07-02T08:59:53.817Z,1016.01
2018-07-02T09:00:53.119Z,1016.01
2018-07-02T09:01:53.091Z,1015.99
2018-07-02T09:02:53.067Z,1015.89
2018-07-02T09:03:53.374Z,1015.95
2018-07-02T09:04:53.026Z,1015.94
2018-07-02T09:05:53.378Z,1015.94
2018-07-02T09:06:52.995Z,1015.95
2018-07-02T09:07:53.824Z,1015.89
2018-07-02T09:08:52.927Z,1015.89
2018-07-02T09:09:52.903Z,1015.90
2018-07-02T09:10:52.925Z,1015.86
2018-07-02T09:11:53.819Z,1015.87
2018-07-02T09:12:52.832Z,1015.88
2018-07-02T09:13:52.855Z,1015.85
2018-07-02T09:14:53.322Z,1015.84
2018-07-02T09:15:52.811Z,1015.78
2018-07-02T09:16:52.770Z,1015.80
2018-07-02T09:17:52.718Z,1015.82
2018-07-02T09:18:52.739Z,1015.75
2018-07-02T09:19:52.723Z,1015.70
2018-07-02T09:20:52.695Z,1015.74
2018-07-02T09:21:52.626Z,1015.69
2018-07-02T09:22:52.600Z,1015.63
2018-07-02T09:23:52.625Z,1015.66
2018-07-02T09:24:52.554Z,1015.73
2018-07-02T09:25:52.575Z,1015.70
2018-07-02T09:26:53.336Z,1015.66
2018-07-02T09:27:52.489Z,1015.64
2018-07-02T09:28:53.328Z,1015.65
2018-07-02T09:29:52.556Z,1015.63
2018-07-02T09:30:52.415Z,1015.58
2018-07-02T09:31:52.391Z,1015.63
2018-07-02T09:32:52.415Z,1015.70
2018-07-02T09:33:52.352Z,1015.67
2018-07-02T09:34:52.826Z,1015.72
2018-07-02T09:35:52.351Z,1015.66
2018-07-02T09:36:52.279Z,1015.59
2018-07-02T09:37:52.303Z,1015.62
2018-07-02T09:38:52.232Z,1015.62
2018-07-02T09:39:52.255Z,1015.66
2018-07-02T09:40:52.193Z,1015.59
2018-07-02T09:41:52.182Z,1015.62
2018-07-02T09:42:52.142Z,1015.58
2018-07-02T09:43:52.383Z,1015.59
2018-07-02T09:44:52.094Z,1015.61
2018-07-02T09:45:52.078Z,1015.53
2018-07-02T09:46:52.074Z,1015.53
2018-07-02T09:47:52.048Z,1015.58
2018-07-02T09:48:52.049Z,1015.54
2018-07-02T09:49:52.034Z,1015.60
2018-07-02T09:50:51.968Z,1015.58
2018-07-02T09:51:51.986Z,1015.68
2018-07-02T09:52:52.837Z,1015.70
2018-07-02T09:53:51.907Z,1015.69
2018-07-02T09:54:51.873Z,1015.67
2018-07-02T09:55:51.906Z,1015.65
2018-07-02T09:56:51.831Z,1015.62
2018-07-02T09:57:52.332Z,1015.63
2018-07-02T09:58:51.790Z,1015.68
2018-07-02T09:59:51.766Z,1015.65
2018-07-02T10:00:51.810Z,1015.66
2018-07-02T10:01:51.721Z,1015.66
2018-07-02T10:02:51.700Z,1015.62
2018-07-02T10:03:51.679Z,1015.66
2018-07-02T10:04:51.655Z,1015.71
2018-07-02T10:05:51.675Z,1015.70
2018-07-02T10:06:51.659Z,1015.73
2018-07-02T10:07:51.594Z,1015.76
2018-07-02T10:08:51.625Z,1015.71
2018-07-02T10:09:51.553Z,1015.71
2018-07-02T10:10:51.532Z,1015.73
2018-07-02T10:11:51.510Z,1015.74
2018-07-02T10:12:52.341Z,1015.73
2018-07-02T10:13:51.509Z,1015.71
2018-07-02T10:14:51.443Z,1015.74
2018-07-02T10:15:51.423Z,1015.77
2018-07-02T10:16:51.447Z,1015.76
2018-07-02T10:17:51.381Z,1015.69
2018-07-02T10:18:51.359Z,1015.63
2018-07-02T10:19:51.340Z,1015.70
2018-07-02T10:20:51.317Z,1015.67
2018-07-02T10:21:51.332Z,1015.63
2018-07-02T10:22:51.278Z,1015.58
2018-07-02T10:23:51.306Z,1015.61
2018-07-02T10:24:51.301Z,1015.63
2018-07-02T10:25:51.215Z,1015.64
2018-07-02T10:26:51.191Z,1015.62
2018-07-02T10:27:51.170Z,1015.61
2018-07-02T10:28:51.142Z,1015.59
2018-07-02T10:29:51.165Z,1015.61
2018-07-02T10:30:51.113Z,1015.59
2018-07-02T10:31:51.845Z,1015.58
2018-07-02T10:32:51.077Z,1015.63
2018-07-02T10:33:51.077Z,1015.58
2018-07-02T10:34:51.041Z,1015.56
2018-07-02T10:35:51.045Z,1015.58
2018-07-02T10:36:50.980Z,1015.59
2018-07-02T10:37:51.849Z,1015.59
2018-07-02T10:38:50.938Z,1015.57
2018-07-02T10:39:50.975Z,1015.59
2018-07-02T10:40:50.913Z,1015.60
2018-07-02T10:41:50.876Z,1015.59
2018-07-02T10:42:50.855Z,1015.59
2018-07-02T10:43:50.829Z,1015.61
2018-07-02T10:44:50.861Z,1015.60
2018-07-02T10:45:50.787Z,1015.71
2018-07-02T10:46:50.776Z,1015.64
2018-07-02T10:47:50.749Z,1015.62
2018-07-02T10:48:50.764Z,1015.62
2018-07-02T10:49:50.751Z,1015.63
2018-07-02T10:50:50.689Z,1015.61
2018-07-02T10:51:50.668Z,1015.63
2018-07-02T10:52:50.689Z,1015.61
2018-07-02T10:53:50.627Z,1015.62
2018-07-02T10:54:50.606Z,1015.64
2018-07-02T10:55:50.589Z,1015.58
2018-07-02T10:56:50.580Z,1015.55
2018-07-02T10:57:50.594Z,1015.57
2018-07-02T10:58:50.529Z,1015.57
2018-07-02T10:59:50.521Z,1015.57
2018-07-02T11:00:50.482Z,1015.60
2018-07-02T11:01:50.474Z,1015.61
2018-07-02T11:02:50.485Z,1015.55
2018-07-02T11:03:50.486Z,1015.49
2018-07-02T11:04:50.402Z,1015.56
2018-07-02T11:05:50.381Z,1015.51
2018-07-02T11:06:51.361Z,1015.49
2018-07-02T11:07:50.360Z,1015.50
2018-07-02T11:08:50.413Z,1015.52
2018-07-02T11:09:50.302Z,1015.48
2018-07-02T11:10:50.280Z,1015.41
2018-07-02T11:11:50.302Z,1015.47
2018-07-02T11:12:50.251Z,1015.42
2018-07-02T11:13:50.270Z,1015.49
2018-07-02T11:14:50.254Z,1015.46
2018-07-02T11:15:50.177Z,1015.50
2018-07-02T11:16:50.167Z,1015.48
2018-07-02T11:17:50.137Z,1015.43
2018-07-02T11:18:50.430Z,1015.40
2018-07-02T11:19:50.094Z,1015.31
2018-07-02T11:20:50.076Z,1015.30
2018-07-02T11:21:50.874Z,1015.26
2018-07-02T11:22:50.031Z,1015.26
2018-07-02T11:23:50.132Z,1015.33
2018-07-02T11:24:49.989Z,1015.29
2018-07-02T11:25:49.978Z,1015.27
2018-07-02T11:26:50.856Z,1015.23
2018-07-02T11:27:49.946Z,1015.30
2018-07-02T11:28:49.996Z,1015.24
2018-07-02T11:29:49.892Z,1015.24
2018-07-02T11:30:50.417Z,1015.28
2018-07-02T11:31:49.846Z,1015.20
2018-07-02T11:32:49.830Z,1015.20
2018-07-02T11:33:49.848Z,1015.14
2018-07-02T11:34:49.786Z,1015.18
2018-07-02T11:35:49.907Z,1015.24
2018-07-02T11:36:49.745Z,1015.24
2018-07-02T11:37:49.774Z,1015.22
2018-07-02T11:38:49.703Z,1015.19
2018-07-02T11:39:49.682Z,1015.20
2018-07-02T11:40:50.362Z,1015.17
2018-07-02T11:41:49.694Z,1015.19
2018-07-02T11:42:49.622Z,1015.16
2018-07-02T11:43:49.598Z,1015.20
2018-07-02T11:44:49.578Z,1015.20
2018-07-02T11:45:50.376Z,1015.24
2018-07-02T11:46:49.590Z,1015.22
2018-07-02T11:47:49.518Z,1015.15
2018-07-02T11:48:49.554Z,1015.23
2018-07-02T11:49:49.478Z,1015.23
2018-07-02T11:50:49.500Z,1015.25
2018-07-02T11:51:49.447Z,1015.21
2018-07-02T11:52:49.418Z,1015.25
2018-07-02T11:53:49.395Z,1015.25
2018-07-02T11:54:49.423Z,1015.20
2018-07-02T11:55:49.419Z,1015.25
2018-07-02T11:56:49.340Z,1015.18
2018-07-02T11:57:49.324Z,1015.21
2018-07-02T11:58:49.310Z,1015.19
2018-07-02T11:59:49.327Z,1015.15
2018-07-02T12:00:49.870Z,1015.26
2018-07-02T12:01:49.266Z,1015.22
2018-07-02T12:02:49.263Z,1015.14
2018-07-02T12:03:49.237Z,1015.12
2018-07-02T12:04:49.180Z,1015.16